createdAt,value
2022-11-26T00:01:05.936Z,268.60
2022-11-26T00:03:39.076Z,301.30
2022-11-26T00:06:26.652Z,220.80
2022-11-26T00:09:00.923Z,277.70
2022-11-26T00:11:32.924Z,307.90
2022-11-26T00:14:06.587Z,294.20
2022-11-26T00:16:38.515Z,312.70
2022-11-26T00:19:12.755Z,264.90
2022-11-26T00:21:48.692Z,261.90
2022-11-26T00:24:32.293Z,246.40
2022-11-26T00:27:05.741Z,259.00
2022-11-26T00:29:38.489Z,260.40
2022-11-26T00:32:13.199Z,266.90
2022-11-26T00:34:46.949Z,244.50
2022-11-26T00:37:23.867Z,230.70
2022-11-26T00:39:57.324Z,235.60
2022-11-26T00:42:29.821Z,204.20
2022-11-26T00:45:05.115Z,232.50
2022-11-26T00:47:38.574Z,216.30
2022-11-26T00:50:17.507Z,219.90
2022-11-26T00:52:50.896Z,209.30
2022-11-26T00:55:28.070Z,192.60
2022-11-26T00:58:03.420Z,200.00
2022-11-26T01:00:36.730Z,192.40
2022-11-26T01:03:09.851Z,172.90
2022-11-26T01:05:45.498Z,174.70
2022-11-26T01:08:25.301Z,179.50
2022-11-26T01:10:59.769Z,171.70
2022-11-26T01:13:33.324Z,174.70
2022-11-26T01:16:20.682Z,179.00
2022-11-26T01:18:54.614Z,179.50
2022-11-26T01:21:28.807Z,176.80
2022-11-26T01:24:01.570Z,198.50
2022-11-26T01:26:38.581Z,186.20
2022-11-26T01:29:14.632Z,174.00
2022-11-26T01:31:50.211Z,176.10
2022-11-26T01:34:22.774Z,172.40
2022-11-26T01:36:54.700Z,180.10
2022-11-26T01:39:28.866Z,172.10
2022-11-26T01:42:08.562Z,172.90
2022-11-26T01:44:41.128Z,174.50
2022-11-26T01:47:24.074Z,171.40
2022-11-26T01:50:45.578Z,165.40
2022-11-26T01:53:25.391Z,171.10
2022-11-26T01:56:04.937Z,168.70
2022-11-26T01:58:40.966Z,167.60
2022-11-26T02:01:14.062Z,172.60
2022-11-26T02:03:57.281Z,176.70
2022-11-26T02:06:33.452Z,171.80
2022-11-26T02:09:07.466Z,170.20
2022-11-26T02:11:40.394Z,161.80
2022-11-26T02:14:15.622Z,160.90
2022-11-26T02:17:15.151Z,156.60
2022-11-26T02:20:14.719Z,157.10
2022-11-26T02:23:07.249Z,146.90
2022-11-26T02:26:17.159Z,154.60
2022-11-26T02:29:03.081Z,154.50
2022-11-26T02:31:39.856Z,147.70
2022-11-26T02:34:16.657Z,149.50
2022-11-26T02:36:51.186Z,145.10
2022-11-26T02:39:28.406Z,152.10
2022-11-26T02:42:04.645Z,144.40
2022-11-26T02:44:43.804Z,148.80
2022-11-26T02:47:18.393Z,143.20
2022-11-26T02:49:55.766Z,140.40
2022-11-26T02:52:28.417Z,140.00
2022-11-26T02:55:01.342Z,144.50
2022-11-26T02:57:37.512Z,136.80
2022-11-26T03:00:13.088Z,133.90
2022-11-26T03:02:49.990Z,137.50
2022-11-26T03:05:23.854Z,141.00
2022-11-26T03:07:57.403Z,138.50
2022-11-26T03:10:31.681Z,139.00
2022-11-26T03:13:07.004Z,144.50
2022-11-26T03:15:38.859Z,146.90
2022-11-26T03:18:14.369Z,141.10
2022-11-26T03:20:52.556Z,143.40
2022-11-26T03:23:26.074Z,134.00
2022-11-26T03:25:59.418Z,138.30
2022-11-26T03:28:33.803Z,131.00
2022-11-26T03:31:07.418Z,130.20
2022-11-26T03:33:40.870Z,131.40
2022-11-26T03:36:14.996Z,134.60
2022-11-26T03:38:49.549Z,140.40
2022-11-26T03:41:23.449Z,142.30
2022-11-26T03:43:57.347Z,141.60
2022-11-26T03:46:31.061Z,141.30
2022-11-26T03:49:04.782Z,140.90
2022-11-26T03:51:37.108Z,147.40
2022-11-26T03:54:11.542Z,144.10
2022-11-26T03:56:43.315Z,138.80
2022-11-26T03:59:17.313Z,158.90
2022-11-26T04:01:51.162Z,156.80
2022-11-26T04:04:24.622Z,153.30
2022-11-26T04:06:59.400Z,140.30
2022-11-26T04:09:33.839Z,138.10
2022-11-26T04:12:10.688Z,137.70
2022-11-26T04:14:47.451Z,138.80
2022-11-26T04:17:20.322Z,142.20
2022-11-26T04:19:55.238Z,144.30
2022-11-26T04:22:27.309Z,144.40
2022-11-26T04:25:00.579Z,146.00
2022-11-26T04:27:34.745Z,153.40
2022-11-26T04:30:09.557Z,360.30
2022-11-26T04:32:43.597Z,467.00
2022-11-26T04:35:17.685Z,294.10
2022-11-26T04:37:50.264Z,226.60
2022-11-26T04:40:23.964Z,241.50
2022-11-26T04:42:55.802Z,256.30
2022-11-26T04:45:28.191Z,240.70
2022-11-26T04:48:05.649Z,303.90
2022-11-26T04:50:37.752Z,286.10
2022-11-26T04:53:10.564Z,280.20
2022-11-26T04:55:43.740Z,276.60
2022-11-26T04:58:16.874Z,243.30
2022-11-26T05:00:52.683Z,252.10
2022-11-26T05:03:26.503Z,272.60
2022-11-26T05:05:59.068Z,280.30
2022-11-26T05:08:32.666Z,279.60
2022-11-26T05:11:05.248Z,269.00
2022-11-26T05:13:39.023Z,246.30
2022-11-26T05:16:13.225Z,238.30
2022-11-26T05:18:45.624Z,221.50
2022-11-26T05:21:19.345Z,222.90
2022-11-26T05:23:51.671Z,228.70
2022-11-26T05:26:26.428Z,227.00
2022-11-26T05:28:58.916Z,210.00
2022-11-26T05:31:33.161Z,213.30
2022-11-26T05:34:09.983Z,203.60
2022-11-26T05:36:41.927Z,205.30
2022-11-26T05:39:14.560Z,214.30
2022-11-26T05:41:47.556Z,202.80
2022-11-26T05:44:21.138Z,202.70
2022-11-26T05:46:55.584Z,197.70
2022-11-26T05:49:28.765Z,180.20
2022-11-26T05:52:03.851Z,168.30
2022-11-26T05:54:36.672Z,170.00
2022-11-26T05:57:11.017Z,159.60
2022-11-26T05:59:44.562Z,157.90
2022-11-26T06:02:17.042Z,153.00
2022-11-26T06:04:52.557Z,151.80
2022-11-26T06:07:26.866Z,149.00
2022-11-26T06:10:00.553Z,152.00
2022-11-26T06:12:33.752Z,155.50
2022-11-26T06:15:08.295Z,174.30
2022-11-26T06:17:43.092Z,180.40
2022-11-26T06:20:16.388Z,158.30
2022-11-26T06:22:49.689Z,156.60
2022-11-26T06:25:22.902Z,150.50
2022-11-26T06:27:56.830Z,157.10
2022-11-26T06:30:29.322Z,202.00
2022-11-26T06:33:05.242Z,194.30
2022-11-26T06:35:38.971Z,148.00
2022-11-26T06:38:10.990Z,137.10
2022-11-26T06:40:44.652Z,137.40
2022-11-26T06:43:17.288Z,135.20
2022-11-26T06:45:49.264Z,137.20
2022-11-26T06:48:22.448Z,132.10
2022-11-26T06:50:56.245Z,138.60
2022-11-26T06:53:29.678Z,137.90
2022-11-26T06:56:05.224Z,139.20
2022-11-26T06:58:38.746Z,138.90
2022-11-26T07:01:15.983Z,141.80
2022-11-26T07:03:50.306Z,184.30
2022-11-26T07:06:25.103Z,158.30
2022-11-26T07:09:04.513Z,161.10
2022-11-26T07:11:39.085Z,153.70
2022-11-26T07:14:11.465Z,175.60
2022-11-26T07:16:43.476Z,168.50
2022-11-26T07:19:17.824Z,178.90
2022-11-26T07:21:51.316Z,170.80
2022-11-26T07:24:23.550Z,150.20
2022-11-26T07:26:58.223Z,151.90
2022-11-26T07:29:30.370Z,153.00
2022-11-26T07:32:04.551Z,148.90
2022-11-26T07:34:37.589Z,132.80
2022-11-26T07:37:11.530Z,126.50
2022-11-26T07:39:44.674Z,136.20
2022-11-26T07:42:18.012Z,134.20
2022-11-26T07:44:53.105Z,141.90
2022-11-26T07:47:25.979Z,166.70
2022-11-26T07:49:57.907Z,164.80
2022-11-26T07:52:30.715Z,164.40
2022-11-26T07:55:12.475Z,163.50
2022-11-26T07:57:46.965Z,164.00
2022-11-26T08:00:21.757Z,151.50
2022-11-26T08:02:53.860Z,156.10
2022-11-26T08:05:27.874Z,146.60
2022-11-26T08:08:01.490Z,164.20
2022-11-26T08:10:34.304Z,198.20
2022-11-26T08:13:07.870Z,230.00
2022-11-26T08:15:41.886Z,192.20
2022-11-26T08:18:13.894Z,184.60
2022-11-26T08:20:47.158Z,153.50
2022-11-26T08:23:21.857Z,148.30
2022-11-26T08:26:20.452Z,142.00
2022-11-26T08:28:48.658Z,138.90
2022-11-26T08:31:22.401Z,131.60
2022-11-26T08:33:56.722Z,125.30
2022-11-26T08:36:30.255Z,125.50
2022-11-26T08:39:04.252Z,122.50
2022-11-26T08:41:36.941Z,120.10
2022-11-26T08:44:10.511Z,109.80
2022-11-26T08:46:44.274Z,110.10
2022-11-26T08:49:20.202Z,107.60
2022-11-26T08:51:54.145Z,106.90
2022-11-26T08:54:28.028Z,109.20
2022-11-26T08:57:03.111Z,109.50
2022-11-26T08:59:35.427Z,110.60
2022-11-26T09:02:18.460Z,113.60
2022-11-26T09:04:55.360Z,121.20
2022-11-26T09:07:29.318Z,124.00
2022-11-26T09:10:03.373Z,128.10
2022-11-26T09:12:38.077Z,144.30
2022-11-26T09:15:12.848Z,135.30
2022-11-26T09:17:45.722Z,136.30
2022-11-26T09:20:19.800Z,141.70
2022-11-26T09:22:52.985Z,133.20
2022-11-26T09:25:27.354Z,135.50
2022-11-26T09:28:00.173Z,137.80
2022-11-26T09:30:35.278Z,138.70
2022-11-26T09:33:09.876Z,144.80
2022-11-26T09:35:42.512Z,154.40
2022-11-26T09:38:16.559Z,160.00
2022-11-26T09:40:51.935Z,142.60
2022-11-26T09:43:31.312Z,147.90
2022-11-26T09:46:10.351Z,150.70
2022-11-26T09:48:44.485Z,144.70
2022-11-26T09:51:21.005Z,145.30
2022-11-26T09:53:55.102Z,146.20
2022-11-26T09:56:33.013Z,150.20
2022-11-26T09:59:08.582Z,149.20
2022-11-26T10:01:43.166Z,150.50
2022-11-26T10:04:24.006Z,146.20
2022-11-26T10:07:01.489Z,152.20
2022-11-26T10:09:47.480Z,181.10
2022-11-26T10:12:29.956Z,176.00
2022-11-26T10:15:08.412Z,167.90
2022-11-26T10:17:46.668Z,181.00
2022-11-26T10:20:47.049Z,176.80
2022-11-26T10:23:26.588Z,173.20
2022-11-26T10:26:08.068Z,167.00
2022-11-26T10:28:47.186Z,185.00
2022-11-26T10:31:23.685Z,204.10
2022-11-26T10:34:04.656Z,177.40
2022-11-26T10:36:40.337Z,156.70
2022-11-26T10:39:19.287Z,176.10
2022-11-26T10:41:52.227Z,141.80
2022-11-26T10:44:41.223Z,162.60
2022-11-26T10:47:26.370Z,138.80
2022-11-26T10:50:45.422Z,120.80
2022-11-26T10:53:16.847Z,91.70
2022-11-26T10:55:50.084Z,93.10
2022-11-26T10:58:24.526Z,81.60
2022-11-26T11:01:07.781Z,76.10
2022-11-26T11:04:08.592Z,73.60
2022-11-26T11:06:44.023Z,69.80
2022-11-26T11:09:36.585Z,63.30
2022-11-26T11:12:32.192Z,76.40
2022-11-26T11:15:24.912Z,79.80
2022-11-26T11:18:03.882Z,78.40
2022-11-26T11:20:39.227Z,77.70
2022-11-26T11:23:39.998Z,79.90
2022-11-26T11:26:21.790Z,81.60
2022-11-26T11:28:58.285Z,90.20
2022-11-26T11:31:30.233Z,89.10
2022-11-26T11:34:19.941Z,98.10
2022-11-26T11:37:10.530Z,97.30
2022-11-26T11:39:47.019Z,98.00
2022-11-26T11:42:28.668Z,96.50
2022-11-26T11:45:03.564Z,84.20
2022-11-26T11:47:39.148Z,87.90
2022-11-26T11:50:22.811Z,89.70
2022-11-26T11:53:06.867Z,80.10
2022-11-26T11:56:00.940Z,79.60
2022-11-26T11:59:04.066Z,78.30
2022-11-26T12:01:49.177Z,77.00
2022-11-26T12:04:28.400Z,81.40
2022-11-26T12:07:38.373Z,83.70
2022-11-26T12:10:18.312Z,88.60
2022-11-26T12:12:53.551Z,84.70
2022-11-26T12:15:29.962Z,78.40
2022-11-26T12:18:08.083Z,84.10
2022-11-26T12:20:46.743Z,84.30
2022-11-26T12:23:33.579Z,76.80
2022-11-26T12:26:13.824Z,80.50
2022-11-26T12:28:52.735Z,82.40
2022-11-26T12:31:35.012Z,82.60
2022-11-26T12:34:14.310Z,83.50
2022-11-26T12:36:53.234Z,89.40
2022-11-26T12:39:34.067Z,79.50
2022-11-26T12:42:13.456Z,78.40
2022-11-26T12:44:48.546Z,84.80
2022-11-26T12:47:25.554Z,76.10
2022-11-26T12:50:07.231Z,80.00
2022-11-26T12:52:43.512Z,83.60
2022-11-26T12:55:24.590Z,87.80
2022-11-26T12:58:02.034Z,83.90
2022-11-26T13:00:36.756Z,88.20
2022-11-26T13:03:18.278Z,72.90
2022-11-26T13:05:58.584Z,88.90
2022-11-26T13:08:43.194Z,87.10
2022-11-26T13:11:33.720Z,86.30
2022-11-26T13:14:11.112Z,63.10
2022-11-26T13:16:52.516Z,66.20
2022-11-26T13:19:34.314Z,72.90
2022-11-26T13:22:31.336Z,88.00
2022-11-26T13:25:27.246Z,74.50
2022-11-26T13:28:07.594Z,69.60
2022-11-26T13:30:52.821Z,290.10
2022-11-26T13:33:47.615Z,180.40
2022-11-26T13:36:42.568Z,156.10
2022-11-26T13:39:30.838Z,87.20
2022-11-26T13:42:13.922Z,83.20
2022-11-26T13:45:17.384Z,72.10
2022-11-26T13:47:52.441Z,80.10
2022-11-26T13:50:31.505Z,73.10
2022-11-26T13:53:07.796Z,75.20
2022-11-26T13:55:45.926Z,77.70
2022-11-26T13:58:25.022Z,95.10
2022-11-26T14:01:30.553Z,85.10
2022-11-26T14:04:06.751Z,74.50
2022-11-26T14:06:39.535Z,114.90
2022-11-26T14:09:54.439Z,109.10
2022-11-26T14:13:07.951Z,58.90
2022-11-26T14:15:59.760Z,59.60
2022-11-26T14:18:59.341Z,64.50
2022-11-26T14:21:33.021Z,64.50
2022-11-26T14:24:06.949Z,58.30
2022-11-26T14:26:42.230Z,57.20
2022-11-26T14:29:17.639Z,64.10
2022-11-26T14:31:54.358Z,60.20
2022-11-26T14:34:30.731Z,60.60
2022-11-26T14:37:04.086Z,65.20
2022-11-26T14:39:36.522Z,70.80
2022-11-26T14:42:13.627Z,84.60
2022-11-26T14:44:47.507Z,87.50
2022-11-26T14:47:22.354Z,85.40
2022-11-26T14:49:57.040Z,89.10
2022-11-26T14:52:30.597Z,115.30
2022-11-26T14:55:07.181Z,64.60
2022-11-26T14:57:45.545Z,282.10
2022-11-26T15:00:26.808Z,279.90
2022-11-26T15:03:00.537Z,90.30
2022-11-26T15:05:40.723Z,60.00
2022-11-26T15:08:20.253Z,70.60
2022-11-26T15:10:56.826Z,69.80
2022-11-26T15:13:32.008Z,103.10
2022-11-26T15:16:26.571Z,90.80
2022-11-26T15:19:02.001Z,70.70
2022-11-26T15:21:41.258Z,75.10
2022-11-26T15:24:14.997Z,67.90
2022-11-26T15:26:49.408Z,60.70
2022-11-26T15:29:32.967Z,56.10
2022-11-26T15:32:07.340Z,56.90
2022-11-26T15:34:44.638Z,57.10
2022-11-26T15:37:18.581Z,69.90
2022-11-26T15:39:50.502Z,72.80
2022-11-26T15:42:30.582Z,73.40
2022-11-26T15:45:03.489Z,63.40
2022-11-26T15:47:35.440Z,44.80
2022-11-26T15:50:22.424Z,42.60
2022-11-26T15:53:06.527Z,36.60
2022-11-26T15:55:41.509Z,41.50
2022-11-26T15:58:17.816Z,49.00
2022-11-26T16:00:54.488Z,48.60
2022-11-26T16:03:45.472Z,42.90
2022-11-26T16:06:31.625Z,37.40
2022-11-26T16:09:28.111Z,38.20
2022-11-26T16:12:02.698Z,35.80
2022-11-26T16:14:36.667Z,30.70
2022-11-26T16:17:13.405Z,27.10
2022-11-26T16:19:52.652Z,26.40
2022-11-26T16:22:28.590Z,29.00
2022-11-26T16:25:20.998Z,31.40
2022-11-26T16:28:15.806Z,26.40
2022-11-26T16:30:51.737Z,61.00
2022-11-26T16:33:29.530Z,42.60
2022-11-26T16:36:04.207Z,66.70
2022-11-26T16:38:40.199Z,70.90
2022-11-26T16:41:18.920Z,41.30
2022-11-26T16:43:51.826Z,75.20
2022-11-26T16:46:27.826Z,37.20
2022-11-26T16:49:03.518Z,55.30
2022-11-26T16:51:38.998Z,44.30
2022-11-26T16:54:16.880Z,37.30
2022-11-26T16:56:53.323Z,65.80
2022-11-26T16:59:32.361Z,64.60
2022-11-26T17:02:10.807Z,45.80
2022-11-26T17:04:45.375Z,35.70
2022-11-26T17:07:24.893Z,51.30
2022-11-26T17:09:58.380Z,38.40
2022-11-26T17:12:33.707Z,32.90
2022-11-26T17:15:08.969Z,34.70
2022-11-26T17:17:42.318Z,34.30
2022-11-26T17:20:21.259Z,33.90
2022-11-26T17:22:53.280Z,35.90
2022-11-26T17:25:29.317Z,36.80
2022-11-26T17:28:01.144Z,148.00
2022-11-26T17:30:36.308Z,56.20
2022-11-26T17:33:10.860Z,42.90
2022-11-26T17:35:43.446Z,41.00
2022-11-26T17:38:18.400Z,40.50
2022-11-26T17:40:52.232Z,41.40
2022-11-26T17:43:29.689Z,42.00
2022-11-26T17:46:04.909Z,41.80
2022-11-26T17:48:40.175Z,42.20
2022-11-26T17:51:14.695Z,43.80
2022-11-26T17:53:49.229Z,44.20
2022-11-26T17:56:27.025Z,47.30
2022-11-26T17:59:06.596Z,46.70
2022-11-26T18:01:45.212Z,60.80
2022-11-26T18:04:20.581Z,71.20
2022-11-26T18:06:59.394Z,84.80
2022-11-26T18:09:37.400Z,80.10
2022-11-26T18:12:21.581Z,97.80
2022-11-26T18:14:57.794Z,73.20
2022-11-26T18:17:31.486Z,80.60
2022-11-26T18:20:04.955Z,71.80
2022-11-26T18:22:37.495Z,68.90
2022-11-26T18:25:10.890Z,70.50
2022-11-26T18:27:44.145Z,75.90
2022-11-26T18:30:20.708Z,92.60
2022-11-26T18:32:53.769Z,90.80
2022-11-26T18:35:30.114Z,89.00
2022-11-26T18:38:07.825Z,111.90
2022-11-26T18:40:42.599Z,113.30
2022-11-26T18:43:17.002Z,102.30
2022-11-26T18:45:50.850Z,110.10
2022-11-26T18:48:25.098Z,112.60
2022-11-26T18:51:03.208Z,121.10
2022-11-26T18:53:37.281Z,107.80
2022-11-26T18:56:13.403Z,105.40
2022-11-26T18:58:48.292Z,94.90
2022-11-26T19:01:25.874Z,233.30
2022-11-26T19:04:02.403Z,129.40
2022-11-26T19:06:35.159Z,106.80
2022-11-26T19:09:09.967Z,93.20
2022-11-26T19:11:44.542Z,98.70
2022-11-26T19:14:17.611Z,99.10
2022-11-26T19:16:53.835Z,106.50
2022-11-26T19:19:29.232Z,78.40
2022-11-26T19:22:02.149Z,86.00
2022-11-26T19:24:36.678Z,82.80
2022-11-26T19:27:10.351Z,88.40
2022-11-26T19:29:42.657Z,79.90
2022-11-26T19:32:16.008Z,77.90
2022-11-26T19:34:48.271Z,71.30
2022-11-26T19:37:25.573Z,72.80
2022-11-26T19:39:59.458Z,66.50
2022-11-26T19:42:34.399Z,67.00
2022-11-26T19:45:08.856Z,65.10
2022-11-26T19:47:42.313Z,64.20
2022-11-26T19:50:14.469Z,55.10
2022-11-26T19:52:48.045Z,51.00
2022-11-26T19:55:21.224Z,54.00
2022-11-26T19:57:53.089Z,53.30
2022-11-26T20:00:26.183Z,50.30
2022-11-26T20:03:03.635Z,52.80
2022-11-26T20:05:41.591Z,53.10
2022-11-26T20:08:17.708Z,53.70
2022-11-26T20:10:50.652Z,57.10
2022-11-26T20:13:24.131Z,56.80
2022-11-26T20:15:57.117Z,59.60
2022-11-26T20:18:33.090Z,59.20
2022-11-26T20:21:10.509Z,60.60
2022-11-26T20:23:45.056Z,60.80
2022-11-26T20:26:21.921Z,62.60
2022-11-26T20:28:56.441Z,64.40
2022-11-26T20:31:30.478Z,66.10
2022-11-26T20:34:07.364Z,74.50
2022-11-26T20:36:40.003Z,69.70
2022-11-26T20:39:18.516Z,69.70
2022-11-26T20:41:58.029Z,74.70
2022-11-26T20:44:31.928Z,73.00
2022-11-26T20:47:08.175Z,75.40
2022-11-26T20:49:51.455Z,71.10
2022-11-26T20:52:37.338Z,69.10
2022-11-26T20:55:22.203Z,69.00
2022-11-26T20:58:00.578Z,67.90
2022-11-26T21:00:34.712Z,71.10
2022-11-26T21:03:09.316Z,68.90
2022-11-26T21:05:43.056Z,73.30
2022-11-26T21:08:21.701Z,70.60
2022-11-26T21:10:55.692Z,72.20
2022-11-26T21:13:31.023Z,69.80
2022-11-26T21:16:06.814Z,72.70
2022-11-26T21:18:39.732Z,72.20
2022-11-26T21:21:14.789Z,68.60
2022-11-26T21:23:48.913Z,70.90
2022-11-26T21:26:25.817Z,70.80
2022-11-26T21:29:00.181Z,66.80
2022-11-26T21:31:38.331Z,65.80
2022-11-26T21:34:12.975Z,61.60
2022-11-26T21:36:44.901Z,60.70
2022-11-26T21:39:20.915Z,57.50
2022-11-26T21:41:54.219Z,56.00
2022-11-26T21:44:26.686Z,47.00
2022-11-26T21:46:59.244Z,55.40
2022-11-26T21:49:34.202Z,53.20
2022-11-26T21:52:11.370Z,58.90
2022-11-26T21:54:45.480Z,59.20
2022-11-26T21:57:20.576Z,61.80
2022-11-26T21:59:53.648Z,62.90
2022-11-26T22:02:29.106Z,70.20
2022-11-26T22:05:03.149Z,74.70
2022-11-26T22:07:37.413Z,71.20
2022-11-26T22:10:13.063Z,92.90
2022-11-26T22:12:47.808Z,79.90
2022-11-26T22:15:20.024Z,80.30
2022-11-26T22:17:53.692Z,85.10
2022-11-26T22:20:29.088Z,98.50
2022-11-26T22:23:01.897Z,98.10
2022-11-26T22:25:37.200Z,88.50
2022-11-26T22:28:12.337Z,79.30
2022-11-26T22:30:44.482Z,78.10
2022-11-26T22:33:18.253Z,76.60
2022-11-26T22:35:50.267Z,76.60
2022-11-26T22:38:26.534Z,80.70
2022-11-26T22:41:04.401Z,80.80
2022-11-26T22:43:36.364Z,84.00
2022-11-26T22:46:13.739Z,88.40
2022-11-26T22:48:49.461Z,84.30
2022-11-26T22:51:24.252Z,85.30
2022-11-26T22:53:59.401Z,90.20
2022-11-26T22:56:32.357Z,84.40
2022-11-26T22:59:05.694Z,73.30
2022-11-26T23:01:39.115Z,75.40
2022-11-26T23:04:12.396Z,79.80
2022-11-26T23:06:45.183Z,81.50
2022-11-26T23:09:20.830Z,91.60
2022-11-26T23:11:54.820Z,94.10
2022-11-26T23:14:26.590Z,77.80
2022-11-26T23:17:01.681Z,76.90
2022-11-26T23:19:35.549Z,75.20
2022-11-26T23:22:09.028Z,72.90
2022-11-26T23:24:45.104Z,74.30
2022-11-26T23:27:20.710Z,69.50
2022-11-26T23:29:53.865Z,71.00
2022-11-26T23:32:32.146Z,70.00
2022-11-26T23:35:05.237Z,69.50
2022-11-26T23:37:40.666Z,61.90
2022-11-26T23:40:16.348Z,63.50
2022-11-26T23:42:48.973Z,59.80
2022-11-26T23:45:22.335Z,59.10
2022-11-26T23:47:55.879Z,56.00
2022-11-26T23:50:28.460Z,90.50
2022-11-26T23:53:03.236Z,103.70
2022-11-26T23:55:36.935Z,105.40
2022-11-26T23:58:09.137Z,89.60
